• Join FlightAware (Why Join?)
  • Login
  • US Flag 
02:45AM EST


 

Airport Tracker/Info


-or-


 

Live Flight TrackerFlight Track Log ✈ N931ED ✈ 02-Oct-2013 ✈ KMSO - KOLM

Flight Track Log - Related Links

Times and Time Zones

All times are in EDT time to prevent confusion due to time zone crossing. See the N931ED flight status page for this flight to view local times or setup timezone preferences in your user account.

Time Position Orientation Groundspeed Altitude Reporting Facility
EDT Latitude Longitude Course Direction KTS MPH feet Rate Location/Type
07:36PM 46.9367 -114.1456 275° West 196 226 6,000  Level Salt Lake Center
07:37PM 46.9419 -114.2392 275° West 230 265 9,800 3,600 Climbing Salt Lake Center
07:38PM 46.9414 -114.3497 270° West 266 306 13,500 3,720 Climbing Salt Lake Center
07:39PM 46.9453 -114.4806 273° West 298 343 17,500 3,240 Climbing Salt Lake Center
07:40PM 46.9511 -114.5878 275° West 308 354 20,300 3,000 Climbing Salt Lake Center
07:41PM 46.9533 -114.6931 272° West 314 361 22,900 3,120 Climbing Seattle Center
07:42PM 46.9569 -114.8236 272° West 320 368 25,800 2,640 Climbing Seattle Center
07:43PM 46.9625 -114.9633 273° West 337 388 28,300 2,700 Climbing Seattle Center
07:44PM 46.9678 -115.1083 273° West 352 405 31,300 2,280 Climbing Seattle Center
07:45PM 46.9733 -115.2542 273° West 358 412 33,000 1,740 Climbing Seattle Center
07:46PM 46.9792 -115.4214 273° West 375 432 34,900 1,620 Climbing Seattle Center
07:47PM 46.9839 -115.5753 273° West 379 436 36,400 1,380 Climbing Seattle Center
07:48PM 46.9881 -115.7292 272° West 379 436 37,800 1,200 Climbing Seattle Center
07:49PM 46.9919 -115.8850 272° West 381 438 38,900 1,020 Climbing Seattle Center
07:50PM 46.9969 -116.0394 273° West 381 438 39,900 960 Climbing Seattle Center
07:51PM 46.9997 -116.1956 272° West 383 441 40,900 960 Climbing Seattle Center
07:52PM 47.0039 -116.3511 272° West 383 441 41,900 1,020 Climbing Seattle Center
07:53PM 47.0078 -116.5378 272° West 382 440 43,000 540 Climbing Seattle Center
07:54PM 47.0108 -116.6942 272° West 382 440 43,000  Level Seattle Center
07:55PM 47.0136 -116.8594 271° West 395 455 43,000  Level Seattle Center
07:56PM 47.0172 -117.0281 272° West 407 468 43,000  Level Seattle Center
07:57PM 47.0194 -117.1958 271° West 411 473 43,000  Level Seattle Center
07:58PM 47.0231 -117.3656 272° West 414 476 43,000  Level Seattle Center
07:59PM 47.0244 -117.5319 271° West 410 472 43,000  Level Seattle Center
08:00PM 47.0275 -117.6975 272° West 406 467 43,000  Level Seattle Center
08:01PM 47.0286 -117.8606 271° West 402 463 43,000  Level Seattle Center
08:02PM 47.0300 -118.0228 271° West 399 459 43,000  Level Seattle Center
08:03PM 47.0308 -118.1850 270° West 398 458 43,000  Level Seattle Center
08:04PM 47.0317 -118.3481 270° West 400 460 43,000  Level Seattle Center
08:05PM 47.0325 -118.5097 270° West 398 458 43,000  Level Seattle Center
08:06PM 47.0331 -118.6722 270° West 398 458 43,000  Level Seattle Center
08:07PM 47.0322 -118.8333 270° West 398 458 43,000  Level Seattle Center
08:08PM 47.0336 -118.9964 271° West 399 459 43,000 -480 Level Seattle Center
08:09PM 47.0325 -119.1908 270° West 399 459 42,100 -1,680 Descending Seattle Center
08:10PM 47.0325 -119.3600 270° West 409 471 39,700 -2,460 Descending Seattle Center
08:11PM 47.0314 -119.5289 270° West 414 476 37,200 -2,520 Descending Seattle Center
08:12PM 47.0311 -119.6981 270° West 415 478 34,700 -2,520 Descending Seattle Center
08:13PM 47.0300 -119.8611 269° West 408 470 32,200 -2,460 Descending Seattle Center
08:14PM 47.0272 -120.0222 269° West 400 460 29,700 -2,340 Descending Seattle Center
08:15PM 47.0261 -120.1658 269° West 387 445 27,500 -2,280 Descending Seattle Center
08:16PM 47.0250 -120.3203 269° West 381 438 25,100 -1,740 Descending Seattle Center
08:17PM 47.0236 -120.5042 269° West 379 436 24,000 -840 Descending Seattle Center
08:18PM 47.0319 -120.6425 275° West 386 444 23,500 -1,140 Descending Seattle Center
08:19PM 47.0408 -120.7914 275° West 376 433 21,700 -1,920 Descending Seattle Center
08:20PM 47.0478 -120.9622 273° West 358 412 19,600 -2,460 Descending Seattle Center
08:21PM 47.0553 -121.1039 274° West 352 405 16,800 -2,940 Descending Seattle Center
08:22PM 47.0614 -121.2417 274° West 349 402 13,700 -2,940 Descending Seattle Center
08:24PM 47.0692 -121.4056 274° West 301 346 10,100 -2,040 Descending Seattle Center
08:24PM 47.0728 -121.4692 275° West 280 322 10,000 -180 Descending Seattle Center
08:24PM 47.0739 -121.4939 274° West 285 328 10,000  Level Seattle Center
08:25PM 47.0789 -121.5864 275° West 285 328 10,000  Level Seattle Center
08:25PM 47.0817 -121.6122 279° West 291 335 10,000 -120 Level Seattle Center
08:26PM 47.0892 -121.7014 277° West 287 330 9,900  Descending Seattle Center
08:26PM 47.0922 -121.7267 280° West 285 328 10,000 -120 Climbing Seattle Center
08:27PM 47.0981 -121.8042 276° West 277 319 9,800 -600 Descending Seattle Center
08:27PM 47.0997 -121.8375 274° West 275 316 9,400 -1,140 Descending Seattle Center
08:28PM 47.1058 -121.9108 277° West 261 300 8,700 -1,140 Descending Seattle Center
08:29PM 47.1086 -121.9492 276° West 259 298 8,300 -1,200 Descending Seattle Center
08:29PM 47.1139 -122.0108 277° West 245 282 7,500 -1,380 Descending Seattle Center
08:30PM 47.1161 -122.0514 275° West 255 293 6,900 -1,680 Descending Seattle Center
08:30PM 47.1228 -122.1233 278° West 261 300 5,800 -1,560 Descending Seattle Center
08:31PM 47.1253 -122.1561 276° West 259 298 5,300 -1,620 Descending Seattle Center
08:31PM 47.1314 -122.2261 277° West 252 290 4,200 -1,320 Descending Seattle Center
08:32PM 47.1344 -122.2558 279° West 249 287 4,000 -120 Descending Seattle Center
08:32PM 47.1375 -122.3203 274° West 227 261 4,100  Climbing Seattle Center
08:33PM 47.1394 -122.3494 276° West 234 269 4,000 -300 Descending Seattle Center
08:33PM 47.1442 -122.4242 275° West 267 307 3,800 -420 Descending Seattle Center
08:34PM 47.1458 -122.4650 273° West 261 300 3,600 -300 Descending Seattle Center
08:34PM 47.1525 -122.5272 279° West 245 282 3,500 -240 Descending Seattle Center
08:35PM 47.1561 -122.5600 279° West 239 275 3,400 -360 Descending Seattle Center
08:35PM 47.1639 -122.6347 279° West 231 266 3,100 -420 Descending Seattle Center
08:36PM 47.1661 -122.6542 280° West 234 269 3,000 -120 Descending Seattle Center
08:36PM 47.1719 -122.7281 277° West 233 268 3,000  Level Seattle Center
08:37PM 47.1731 -122.7467 275° West 230 265 3,000  Level Seattle Center
08:37PM 47.1778 -122.8131 276° West 212 244 3,000  Level Seattle Center
08:38PM 47.1711 -122.8361 247° West 216 249 3,000 -120 Level Seattle Center
08:38PM 47.1311 -122.8575 200° South 223 257 2,900 -300 Descending Seattle Center
08:39PM 47.1128 -122.8619 189° South 223 257 2,700 -600 Descending Seattle Center
08:39PM 47.0697 -122.8775 194° South 226 260 2,300 -720 Descending Seattle Center
08:40PM 47.0536 -122.8792 184° South 216 249 2,000 -1,080 Descending Seattle Center
08:41PM 47.0178 -122.8922 194° South 141 162 1,100 -1,020 Descending Seattle Center
08:41PM 47.0119 -122.8908 171° South 152 175 1,000 -360 Descending Seattle Center
08:42PM 46.9792 -122.9006 191° South 140 161 700 -300 Descending Seattle Center